createdAt,value
2022-12-08T00:01:35.707Z,4.00
2022-12-08T00:04:05.127Z,3.90
2022-12-08T00:06:52.659Z,3.90
2022-12-08T00:09:23.500Z,3.90
2022-12-08T00:11:53.321Z,3.90
2022-12-08T00:14:25.990Z,3.90
2022-12-08T00:16:54.136Z,4.00
2022-12-08T00:19:22.502Z,3.90
2022-12-08T00:21:50.635Z,3.90
2022-12-08T00:24:19.151Z,3.90
2022-12-08T00:26:48.182Z,3.90
2022-12-08T00:29:17.669Z,3.90
2022-12-08T00:31:47.455Z,3.90
2022-12-08T00:34:16.834Z,3.80
2022-12-08T00:36:45.310Z,3.80
2022-12-08T00:39:14.558Z,3.80
2022-12-08T00:41:59.929Z,3.80
2022-12-08T00:44:28.024Z,3.70
2022-12-08T00:46:57.451Z,3.70
2022-12-08T00:49:25.589Z,3.70
2022-12-08T00:51:53.684Z,3.70
2022-12-08T00:54:22.992Z,3.60
2022-12-08T00:56:51.365Z,3.60
2022-12-08T00:59:19.480Z,3.60
2022-12-08T01:01:48.406Z,3.50
2022-12-08T01:04:19.604Z,3.50
2022-12-08T01:06:48.599Z,3.50
2022-12-08T01:09:17.830Z,3.50
2022-12-08T01:11:46.736Z,3.50
2022-12-08T01:14:15.111Z,3.60
2022-12-08T01:16:43.819Z,3.60
2022-12-08T01:19:13.114Z,3.70
2022-12-08T01:21:43.263Z,3.60
2022-12-08T01:24:13.164Z,3.60
2022-12-08T01:26:41.704Z,3.60
2022-12-08T01:29:09.829Z,3.70
2022-12-08T01:31:37.965Z,3.70
2022-12-08T01:34:06.032Z,3.70
2022-12-08T01:36:37.118Z,3.70
2022-12-08T01:39:08.843Z,3.70
2022-12-08T01:41:39.364Z,3.70
2022-12-08T01:44:40.598Z,3.70
2022-12-08T01:47:08.645Z,3.80
2022-12-08T01:49:38.010Z,3.70
2022-12-08T01:52:12.157Z,3.70
2022-12-08T01:54:48.444Z,3.60
2022-12-08T01:57:22.206Z,3.50
2022-12-08T01:59:54.483Z,3.50
2022-12-08T02:02:22.653Z,3.40
2022-12-08T02:04:50.819Z,3.40
2022-12-08T02:07:19.657Z,3.40
2022-12-08T02:09:49.347Z,3.40
2022-12-08T02:12:17.552Z,3.40
2022-12-08T02:14:45.633Z,3.40
2022-12-08T02:17:25.669Z,3.40
2022-12-08T02:20:27.629Z,3.40
2022-12-08T02:23:00.320Z,3.40
2022-12-08T02:25:41.195Z,3.40
2022-12-08T02:28:39.189Z,3.30
2022-12-08T02:31:18.812Z,3.30
2022-12-08T02:34:13.043Z,3.40
2022-12-08T02:36:50.232Z,3.50
2022-12-08T02:39:29.453Z,3.50
2022-12-08T02:42:08.123Z,3.50
2022-12-08T02:44:40.664Z,3.50
2022-12-08T02:47:13.115Z,3.50
2022-12-08T02:49:43.083Z,3.50
2022-12-08T02:52:44.811Z,3.50
2022-12-08T02:55:28.696Z,3.50
2022-12-08T02:58:27.359Z,3.50
2022-12-08T03:01:09.481Z,3.50
2022-12-08T03:03:46.135Z,3.50
2022-12-08T03:06:26.257Z,3.50
2022-12-08T03:08:59.455Z,3.50
2022-12-08T03:11:35.835Z,3.50
2022-12-08T03:14:07.727Z,3.60
2022-12-08T03:16:41.507Z,3.60
2022-12-08T03:19:14.679Z,3.60
2022-12-08T03:21:46.131Z,3.60
2022-12-08T03:24:16.387Z,3.60
2022-12-08T03:26:51.157Z,3.60
2022-12-08T03:29:19.749Z,3.60
2022-12-08T03:31:59.146Z,3.60
2022-12-08T03:34:30.323Z,3.60
2022-12-08T03:37:02.498Z,3.60
2022-12-08T03:39:30.509Z,3.50
2022-12-08T03:41:58.533Z,3.50
2022-12-08T03:44:26.643Z,3.50
2022-12-08T03:46:54.656Z,3.50
2022-12-08T03:49:22.702Z,3.50
2022-12-08T03:51:51.234Z,3.60
2022-12-08T03:54:20.642Z,3.60
2022-12-08T03:56:48.769Z,3.60
2022-12-08T03:59:16.812Z,3.60
2022-12-08T04:01:44.851Z,3.70
2022-12-08T04:04:12.925Z,3.70
2022-12-08T04:06:40.937Z,3.70
2022-12-08T04:09:08.980Z,3.70
2022-12-08T04:11:38.362Z,3.70
2022-12-08T04:14:06.402Z,3.80
2022-12-08T04:16:34.567Z,3.80
2022-12-08T04:19:02.631Z,3.80
2022-12-08T04:21:30.642Z,3.80
2022-12-08T04:24:01.210Z,3.80
2022-12-08T04:26:29.982Z,3.80
2022-12-08T04:28:59.726Z,3.70
2022-12-08T04:31:27.847Z,3.70
2022-12-08T04:33:55.920Z,3.70
2022-12-08T04:36:23.959Z,3.60
2022-12-08T04:38:51.985Z,3.60
2022-12-08T04:41:20.018Z,3.60
2022-12-08T04:43:48.095Z,3.60
2022-12-08T04:46:17.545Z,3.70
2022-12-08T04:48:45.586Z,3.60
2022-12-08T04:51:17.389Z,3.70
2022-12-08T04:53:46.911Z,3.60
2022-12-08T04:56:16.025Z,3.60
2022-12-08T04:58:44.145Z,3.70
2022-12-08T05:01:12.385Z,3.60
2022-12-08T05:03:41.953Z,3.60
2022-12-08T05:06:13.580Z,3.70
2022-12-08T05:08:42.096Z,3.60
2022-12-08T05:11:12.402Z,3.60
2022-12-08T05:13:40.406Z,3.60
2022-12-08T05:16:10.673Z,3.60
2022-12-08T05:18:39.667Z,3.60
2022-12-08T05:21:10.517Z,3.60
2022-12-08T05:23:38.548Z,3.50
2022-12-08T05:26:06.998Z,3.50
2022-12-08T05:28:43.390Z,3.50
2022-12-08T05:31:12.528Z,3.50
2022-12-08T05:33:40.881Z,3.50
2022-12-08T05:36:11.306Z,3.50
2022-12-08T05:38:39.611Z,3.50
2022-12-08T05:41:07.894Z,3.50
2022-12-08T05:43:35.891Z,3.60
2022-12-08T05:46:04.188Z,3.50
2022-12-08T05:48:32.308Z,3.60
2022-12-08T05:51:00.989Z,3.60
2022-12-08T05:53:30.414Z,3.60
2022-12-08T05:55:58.623Z,3.60
2022-12-08T05:58:26.761Z,3.60
2022-12-08T06:00:54.795Z,3.50
2022-12-08T06:03:22.969Z,3.50
2022-12-08T06:05:51.024Z,3.60
2022-12-08T06:08:19.181Z,3.60
2022-12-08T06:10:48.925Z,3.50
2022-12-08T06:13:17.023Z,3.60
2022-12-08T06:15:45.043Z,3.60
2022-12-08T06:18:13.253Z,3.60
2022-12-08T06:20:41.338Z,3.60
2022-12-08T06:23:09.438Z,3.60
2022-12-08T06:25:37.513Z,3.60
2022-12-08T06:28:08.544Z,3.70
2022-12-08T06:30:36.571Z,3.70
2022-12-08T06:33:04.687Z,3.70
2022-12-08T06:35:32.690Z,3.70
2022-12-08T06:38:00.982Z,3.70
2022-12-08T06:40:28.995Z,3.70
2022-12-08T06:42:57.013Z,3.70
2022-12-08T06:45:26.373Z,3.60
2022-12-08T06:47:54.411Z,3.70
2022-12-08T06:50:22.682Z,3.70
2022-12-08T06:53:01.085Z,3.70
2022-12-08T06:55:57.900Z,3.70
2022-12-08T06:58:21.449Z,3.70
2022-12-08T07:00:51.053Z,3.80
2022-12-08T07:03:19.217Z,3.70
2022-12-08T07:05:47.231Z,3.60
2022-12-08T07:08:15.571Z,3.70
2022-12-08T07:10:43.726Z,3.70
2022-12-08T07:13:11.754Z,3.70
2022-12-08T07:15:39.781Z,3.80
2022-12-08T07:18:09.231Z,3.80
2022-12-08T07:20:37.234Z,3.80
2022-12-08T07:23:05.284Z,3.80
2022-12-08T07:25:33.311Z,3.80
2022-12-08T07:28:01.349Z,3.80
2022-12-08T07:30:29.609Z,3.90
2022-12-08T07:32:57.723Z,3.90
2022-12-08T07:35:27.106Z,3.90
2022-12-08T07:37:55.248Z,3.90
2022-12-08T07:40:23.288Z,3.90
2022-12-08T07:42:51.291Z,3.90
2022-12-08T07:45:19.333Z,3.90
2022-12-08T07:47:47.441Z,3.90
2022-12-08T07:50:15.530Z,3.80
2022-12-08T07:52:44.965Z,3.80
2022-12-08T07:55:13.008Z,3.80
2022-12-08T07:57:41.023Z,3.80
2022-12-08T08:00:10.281Z,3.80
2022-12-08T08:02:38.478Z,3.80
2022-12-08T08:05:07.668Z,3.70
2022-12-08T08:07:36.818Z,3.70
2022-12-08T08:10:07.848Z,3.70
2022-12-08T08:12:36.650Z,3.80
2022-12-08T08:15:07.438Z,3.80
2022-12-08T08:17:35.812Z,3.80
2022-12-08T08:20:06.992Z,3.90
2022-12-08T08:22:36.224Z,3.90
2022-12-08T08:25:05.690Z,4.00
2022-12-08T08:27:35.102Z,4.00
2022-12-08T08:30:04.007Z,4.00
2022-12-08T08:32:34.292Z,4.00
2022-12-08T08:35:02.709Z,4.00
2022-12-08T08:37:30.845Z,4.00
2022-12-08T08:39:59.011Z,4.00
2022-12-08T08:42:27.297Z,4.00
2022-12-08T08:44:56.707Z,4.00
2022-12-08T08:47:24.723Z,4.00
2022-12-08T08:49:52.797Z,3.90
2022-12-08T08:52:20.799Z,4.00
2022-12-08T08:54:48.858Z,3.90
2022-12-08T08:57:23.599Z,3.90
2022-12-08T08:59:53.525Z,4.10
2022-12-08T09:02:23.003Z,4.10
2022-12-08T09:04:51.823Z,4.10
2022-12-08T09:07:19.894Z,4.10
2022-12-08T09:09:47.942Z,4.10
2022-12-08T09:12:16.175Z,4.10
2022-12-08T09:14:44.208Z,4.20
2022-12-08T09:17:12.416Z,4.20
2022-12-08T09:19:41.963Z,4.20
2022-12-08T09:22:10.003Z,4.20
2022-12-08T09:24:38.034Z,4.20
2022-12-08T09:27:06.084Z,4.20
2022-12-08T09:29:36.238Z,4.30
2022-12-08T09:32:04.843Z,4.30
2022-12-08T09:34:33.022Z,4.20
2022-12-08T09:37:02.682Z,4.20
2022-12-08T09:39:30.690Z,4.20
2022-12-08T09:42:01.730Z,4.30
2022-12-08T09:44:48.529Z,4.30
2022-12-08T09:47:29.481Z,4.30
2022-12-08T09:50:07.488Z,4.40
2022-12-08T09:52:42.466Z,4.50
2022-12-08T09:55:18.591Z,4.50
2022-12-08T09:57:51.664Z,4.50
2022-12-08T10:00:24.235Z,4.50
2022-12-08T10:02:52.295Z,4.50
2022-12-08T10:05:21.416Z,4.60
2022-12-08T10:08:02.433Z,4.60
2022-12-08T10:10:39.426Z,4.60
2022-12-08T10:13:22.986Z,4.60
2022-12-08T10:15:58.589Z,4.60
2022-12-08T10:18:30.016Z,4.50
2022-12-08T10:21:01.792Z,4.50
2022-12-08T10:23:35.375Z,4.60
2022-12-08T10:26:05.004Z,4.60
2022-12-08T10:28:36.022Z,4.60
2022-12-08T10:31:07.193Z,4.70
2022-12-08T10:33:35.290Z,4.80
2022-12-08T10:36:04.935Z,4.80
2022-12-08T10:38:35.841Z,4.90
2022-12-08T10:41:08.155Z,4.80
2022-12-08T10:43:39.230Z,4.90
2022-12-08T10:46:13.466Z,4.90
2022-12-08T10:48:50.309Z,5.00
2022-12-08T10:51:28.352Z,5.10
2022-12-08T10:53:58.521Z,5.10
2022-12-08T10:56:29.036Z,5.10
2022-12-08T10:59:12.894Z,5.10
2022-12-08T11:01:43.098Z,5.20
2022-12-08T11:04:18.087Z,5.20
2022-12-08T11:06:46.746Z,5.20
2022-12-08T11:09:35.515Z,5.20
2022-12-08T11:12:09.150Z,5.20
2022-12-08T11:14:48.913Z,5.20
2022-12-08T11:17:19.377Z,5.30
2022-12-08T11:19:56.989Z,5.30
2022-12-08T11:22:28.689Z,5.30
2022-12-08T11:25:04.028Z,5.40
2022-12-08T11:27:34.686Z,5.50
2022-12-08T11:30:06.185Z,5.40
2022-12-08T11:32:40.468Z,5.50
2022-12-08T11:35:11.171Z,5.40
2022-12-08T11:37:41.621Z,5.50
2022-12-08T11:40:18.765Z,5.40
2022-12-08T11:42:55.938Z,5.40
2022-12-08T11:45:28.481Z,5.40
2022-12-08T11:48:05.200Z,5.40
2022-12-08T11:50:41.740Z,5.40
2022-12-08T11:53:16.283Z,5.40
2022-12-08T11:55:50.449Z,5.30
2022-12-08T11:58:21.425Z,5.30
2022-12-08T12:00:50.077Z,5.40
2022-12-08T12:03:29.734Z,5.50
2022-12-08T12:06:46.446Z,5.50
2022-12-08T12:09:17.794Z,5.50
2022-12-08T12:12:16.516Z,5.40
2022-12-08T12:15:08.520Z,5.50
2022-12-08T12:17:45.395Z,5.50
2022-12-08T12:20:19.749Z,5.60
2022-12-08T12:22:52.989Z,5.60
2022-12-08T12:25:24.626Z,5.50
2022-12-08T12:27:58.756Z,5.50
2022-12-08T12:30:29.073Z,5.50
2022-12-08T12:33:00.333Z,5.60
2022-12-08T12:35:34.110Z,5.60
2022-12-08T12:38:26.165Z,5.70
2022-12-08T12:41:02.227Z,5.70
2022-12-08T12:43:34.272Z,5.60
2022-12-08T12:46:53.289Z,5.60
2022-12-08T12:49:53.222Z,5.50
2022-12-08T12:52:49.584Z,5.50
2022-12-08T12:55:29.898Z,5.40
2022-12-08T12:57:59.571Z,5.50
2022-12-08T13:00:29.406Z,5.50
2022-12-08T13:02:58.838Z,5.40
2022-12-08T13:05:29.138Z,5.40
2022-12-08T13:08:00.362Z,5.40
2022-12-08T13:10:32.424Z,5.30
2022-12-08T13:13:17.462Z,5.30
2022-12-08T13:15:52.718Z,5.40
2022-12-08T13:18:22.980Z,5.40
2022-12-08T13:20:55.257Z,5.50
2022-12-08T13:23:44.143Z,5.50
2022-12-08T13:26:19.589Z,5.40
2022-12-08T13:29:14.176Z,5.40
2022-12-08T13:31:50.582Z,5.40
2022-12-08T13:34:23.103Z,5.40
2022-12-08T13:36:57.874Z,5.30
2022-12-08T13:39:30.269Z,5.30
2022-12-08T13:42:07.848Z,5.40
2022-12-08T13:47:37.098Z,5.40
2022-12-08T13:53:48.927Z,5.40
2022-12-08T13:58:44.024Z,5.40
2022-12-08T14:01:16.097Z,5.40
2022-12-08T14:06:48.805Z,5.30
2022-12-08T14:09:19.862Z,5.30
2022-12-08T14:11:53.478Z,5.30
2022-12-08T14:14:53.911Z,5.30
2022-12-08T14:17:14.998Z,5.30
2022-12-08T14:19:46.647Z,5.30
2022-12-08T14:22:16.879Z,5.30
2022-12-08T14:24:47.099Z,5.30
2022-12-08T14:27:17.524Z,5.30
2022-12-08T14:29:47.402Z,5.30
2022-12-08T14:32:34.932Z,5.30
2022-12-08T14:35:19.072Z,5.30
2022-12-08T14:37:49.726Z,5.20
2022-12-08T14:40:23.870Z,5.20
2022-12-08T14:42:55.421Z,5.10
2022-12-08T14:45:23.469Z,5.10
2022-12-08T14:47:52.412Z,5.10
2022-12-08T14:50:42.946Z,5.10
2022-12-08T14:53:17.289Z,5.10
2022-12-08T14:55:47.627Z,5.00
2022-12-08T14:58:20.223Z,5.00
2022-12-08T15:00:52.226Z,5.00
2022-12-08T15:03:23.301Z,5.00
2022-12-08T15:05:56.415Z,5.00
2022-12-08T15:08:24.772Z,5.00
2022-12-08T15:11:14.675Z,5.00
2022-12-08T15:13:48.196Z,5.00
2022-12-08T15:16:29.474Z,4.90
2022-12-08T15:19:16.442Z,4.90
2022-12-08T15:21:47.211Z,4.80
2022-12-08T15:24:16.741Z,4.80
2022-12-08T15:26:47.611Z,4.80
2022-12-08T15:29:21.884Z,4.70
2022-12-08T15:31:50.359Z,4.70
2022-12-08T15:34:18.657Z,4.70
2022-12-08T15:36:48.635Z,4.60
2022-12-08T15:39:26.714Z,4.60
2022-12-08T15:41:54.751Z,4.60
2022-12-08T15:44:22.907Z,4.60
2022-12-08T15:46:51.131Z,4.60
2022-12-08T15:49:21.546Z,4.50
2022-12-08T15:51:58.343Z,4.50
2022-12-08T15:54:34.093Z,4.50
2022-12-08T15:57:19.133Z,4.50
2022-12-08T15:59:51.281Z,4.50
2022-12-08T16:02:22.879Z,4.50
2022-12-08T16:07:41.591Z,4.50
2022-12-08T16:10:16.537Z,4.40
2022-12-08T16:15:59.040Z,4.50
2022-12-08T16:18:30.230Z,4.50
2022-12-08T16:21:31.481Z,4.50
2022-12-08T16:23:48.117Z,4.50
2022-12-08T16:26:44.036Z,4.50
2022-12-08T16:29:06.576Z,4.50
2022-12-08T16:31:34.810Z,4.50
2022-12-08T16:34:02.947Z,4.50
2022-12-08T16:36:30.983Z,4.50
2022-12-08T16:39:00.388Z,4.50
2022-12-08T16:41:45.820Z,4.50
2022-12-08T16:44:13.861Z,4.50
2022-12-08T16:46:41.977Z,4.50
2022-12-08T16:49:10.896Z,4.50
2022-12-08T16:51:38.979Z,4.40
2022-12-08T16:54:08.381Z,4.40
2022-12-08T16:56:36.402Z,4.40
2022-12-08T16:59:04.667Z,4.30
2022-12-08T17:01:32.874Z,4.40
2022-12-08T17:04:30.357Z,4.30
2022-12-08T17:06:50.965Z,4.30
2022-12-08T17:09:20.561Z,4.20
2022-12-08T17:11:48.590Z,4.20
2022-12-08T17:14:17.102Z,4.20
2022-12-08T17:16:45.820Z,4.30
2022-12-08T17:19:15.272Z,4.30
2022-12-08T17:21:44.287Z,4.20
2022-12-08T17:24:14.696Z,4.10
2022-12-08T17:26:46.636Z,4.10
2022-12-08T17:29:14.641Z,4.00
2022-12-08T17:31:42.785Z,4.10
2022-12-08T17:34:12.294Z,4.10
2022-12-08T17:36:40.366Z,4.20
2022-12-08T17:39:14.833Z,4.20
2022-12-08T17:41:47.725Z,4.20
2022-12-08T17:44:17.827Z,4.20
2022-12-08T17:46:52.115Z,4.20
2022-12-08T17:49:23.549Z,4.20
2022-12-08T17:51:53.840Z,4.20
2022-12-08T17:54:22.624Z,4.20
2022-12-08T17:56:52.395Z,4.10
2022-12-08T17:59:20.980Z,4.20
2022-12-08T18:01:49.184Z,4.20
2022-12-08T18:04:17.233Z,4.20
2022-12-08T18:06:45.267Z,4.10
2022-12-08T18:09:13.398Z,4.10
2022-12-08T18:11:41.521Z,4.10
2022-12-08T18:14:12.111Z,4.00
2022-12-08T18:16:43.130Z,4.00
2022-12-08T18:19:12.623Z,4.00
2022-12-08T18:21:40.817Z,4.00
2022-12-08T18:24:10.008Z,3.90
2022-12-08T18:26:38.043Z,3.90
2022-12-08T18:29:06.081Z,3.90
2022-12-08T18:31:35.537Z,3.90
2022-12-08T18:34:03.732Z,3.90
2022-12-08T18:36:31.995Z,3.90
2022-12-08T18:39:01.635Z,3.80
2022-12-08T18:41:32.555Z,3.80
2022-12-08T18:44:00.586Z,3.70
2022-12-08T18:46:28.695Z,3.70
2022-12-08T18:48:58.158Z,3.70
2022-12-08T18:51:26.408Z,3.70
2022-12-08T18:53:54.559Z,3.70
2022-12-08T18:56:25.038Z,3.70
2022-12-08T18:58:53.170Z,3.70
2022-12-08T19:01:21.748Z,3.60
2022-12-08T19:04:27.194Z,3.60
2022-12-08T19:06:40.556Z,3.60
2022-12-08T19:09:09.070Z,3.60
2022-12-08T19:11:37.211Z,3.50
2022-12-08T19:14:05.956Z,3.50
2022-12-08T19:16:34.079Z,3.40
2022-12-08T19:19:02.293Z,3.40
2022-12-08T19:21:30.440Z,3.40
2022-12-08T19:24:00.067Z,3.30
2022-12-08T19:26:29.123Z,3.30
2022-12-08T19:28:58.592Z,3.30
2022-12-08T19:31:26.745Z,3.20
2022-12-08T19:33:55.005Z,3.20
2022-12-08T19:36:24.025Z,3.20
2022-12-08T19:39:09.401Z,3.20
2022-12-08T19:41:56.683Z,3.10
2022-12-08T19:44:44.193Z,3.10
2022-12-08T19:47:12.308Z,3.00
2022-12-08T19:49:40.421Z,2.90
2022-12-08T19:52:08.719Z,2.90
2022-12-08T19:54:36.857Z,2.90
2022-12-08T19:57:06.350Z,2.80
2022-12-08T19:59:34.346Z,2.80
2022-12-08T20:02:02.502Z,2.70
2022-12-08T20:04:30.583Z,2.70
2022-12-08T20:06:58.944Z,2.70
2022-12-08T20:09:26.979Z,2.70
2022-12-08T20:11:55.650Z,2.70
2022-12-08T20:14:25.359Z,2.60
2022-12-08T20:16:53.467Z,2.70
2022-12-08T20:19:21.586Z,2.60
2022-12-08T20:21:49.908Z,2.60
2022-12-08T20:24:18.447Z,2.60
2022-12-08T20:26:46.499Z,2.60
2022-12-08T20:29:16.964Z,2.60
2022-12-08T20:31:46.755Z,2.60
2022-12-08T20:34:16.112Z,2.50
2022-12-08T20:36:44.303Z,2.50
2022-12-08T20:39:13.690Z,2.50
2022-12-08T20:41:42.006Z,2.50
2022-12-08T20:44:10.785Z,2.50
2022-12-08T20:46:39.318Z,2.50
2022-12-08T20:49:08.795Z,2.50
2022-12-08T20:51:37.025Z,2.50
2022-12-08T20:54:05.574Z,2.60
2022-12-08T20:56:33.857Z,2.60
2022-12-08T20:59:02.365Z,2.60
2022-12-08T21:01:30.665Z,2.70
2022-12-08T21:03:58.811Z,2.70
2022-12-08T21:06:28.493Z,2.70
2022-12-08T21:08:57.028Z,2.70
2022-12-08T21:11:25.279Z,2.70
2022-12-08T21:13:53.422Z,2.70
2022-12-08T21:16:21.734Z,2.70
2022-12-08T21:18:49.832Z,2.70
2022-12-08T21:21:18.769Z,2.70
2022-12-08T21:23:48.367Z,2.70
2022-12-08T21:26:18.157Z,2.60
2022-12-08T21:28:46.731Z,2.60
2022-12-08T21:31:18.340Z,2.60
2022-12-08T21:33:46.779Z,2.70
2022-12-08T21:36:17.473Z,2.70
2022-12-08T21:38:48.070Z,2.70
2022-12-08T21:41:39.753Z,2.70
2022-12-08T21:44:10.293Z,2.70
2022-12-08T21:46:39.232Z,2.70
2022-12-08T21:49:07.525Z,2.70
2022-12-08T21:51:37.893Z,2.70
2022-12-08T21:54:07.618Z,2.80
2022-12-08T21:56:37.011Z,2.80
2022-12-08T21:59:05.193Z,2.80
2022-12-08T22:01:33.328Z,2.80
2022-12-08T22:04:01.646Z,2.80
2022-12-08T22:06:29.786Z,2.80
2022-12-08T22:08:58.321Z,2.80
2022-12-08T22:11:27.758Z,2.80
2022-12-08T22:13:56.093Z,2.80
2022-12-08T22:16:24.196Z,2.80
2022-12-08T22:18:52.564Z,2.80
2022-12-08T22:21:20.748Z,2.80
2022-12-08T22:23:48.993Z,2.80
2022-12-08T22:26:17.141Z,2.70
2022-12-08T22:28:46.811Z,2.80
2022-12-08T22:31:17.168Z,2.80
2022-12-08T22:33:45.472Z,2.80
2022-12-08T22:36:16.132Z,2.80
2022-12-08T22:38:44.786Z,2.90
2022-12-08T22:41:13.431Z,2.80
2022-12-08T22:43:42.103Z,2.80
2022-12-08T22:46:14.073Z,2.80
2022-12-08T22:48:42.729Z,2.80
2022-12-08T22:51:11.918Z,2.80
2022-12-08T22:53:40.347Z,2.80
2022-12-08T22:56:10.979Z,2.80
2022-12-08T22:58:39.924Z,2.70
2022-12-08T23:01:08.967Z,2.70
2022-12-08T23:03:38.527Z,2.60
2022-12-08T23:06:13.301Z,2.60
2022-12-08T23:08:41.437Z,2.60
2022-12-08T23:11:09.508Z,2.60
2022-12-08T23:13:39.421Z,2.60
2022-12-08T23:16:08.992Z,2.60
2022-12-08T23:18:39.359Z,2.60
2022-12-08T23:21:09.171Z,2.60
2022-12-08T23:23:38.096Z,2.60
2022-12-08T23:26:13.711Z,2.60
2022-12-08T23:28:41.927Z,2.60
2022-12-08T23:31:10.370Z,2.60
2022-12-08T23:33:39.804Z,2.70
2022-12-08T23:36:08.483Z,2.70
2022-12-08T23:38:36.780Z,2.70
2022-12-08T23:41:06.567Z,2.60
2022-12-08T23:43:35.197Z,2.60
2022-12-08T23:46:03.691Z,2.70
2022-12-08T23:48:34.656Z,2.70
2022-12-08T23:51:04.568Z,2.70
2022-12-08T23:53:34.100Z,2.70
2022-12-08T23:56:02.904Z,2.70
2022-12-08T23:58:32.491Z,2.70
